首页
METAR-TAF:

METAR-TAF

机场 :

雪城汉考克国际机场

锡拉丘兹, 紐約州, 美国

纬度: 43-06-33N, 经度: 076-06-12W, 海拔: 128米

当前天气观测

该预报发布于40分钟前的18:54 UTC
风速15节,风向西转西北,有时为20节阵风
温度 -2°C
湿度 50%
气压 1027 hPa
能見度: 16.1公里
多云层高于4500英尺
阴天层高于5500英尺

METAR: KSYR 191854Z 29015G20KT 10SM BKN045 OVC055 M02/M11 A3033 RMK AO2 SLP273 T10171106

时间: 14:34 (19:34 UTC)

预报

该预报发布于2小时和8分钟前的17:26 UTC
预报有效从19日的 18点(UTC)到 20日的 18点(UTC)
风速15节,风向西北,有时为24节阵风
能見度: 10公里
散云层高于3000英尺
小雪
从 20日的 0100点(UTC)
风速11节,风向西转西北,有时为19节阵风
能見度: 8.0公里
散云层高于2500英尺
多云层高于4000英尺
小阵雪
从 20日的 0400点(UTC)
风速10节,风向西转西北
能見度: 1.6公里
少量云层高于1000英尺
多云层高于1800英尺
小雪, 轻雾
短暂存在
从 20日的 06点(UTC)到 20日的 10点(UTC)
能見度: 0.4公里
层高于800英尺
大雪, 雾
从 20日的 1500点(UTC)
风速8节,风向西转西北
能見度: 4.8公里
多云层高于1500英尺
小雪, 轻雾
从 20日的 1700点(UTC)
风速6节,风向西北
能見度: 10公里
多云层高于3000英尺
小雪

TAF: KSYR 191726Z 1918/2018 31015G24KT P6SM -SN SCT030 FM200100 29011G19KT 5SM -SHSN SCT025 BKN040 FM200400 29010KT 1SM -SN BR FEW010 BKN018 TEMPO 2006/2010 1/4SM +SN FG VV008 FM201500 30008KT 3SM -SN BR BKN015 FM201700 31006KT P6SM -SN BKN030

超过4000个机场的气象观测和天气预报(METAR&TAF报告)。

可查询的气象台以黄色和红色小点在地图上表示。

将鼠标移到小点上方,可查看气象台名称。

然后点击查看天气观测和预报。

如需切换地图:点击带黑十字的绿色按钮放大地图;点击带横线的绿色按钮缩小地图;或者点击绿色箭头查看邻近地区的地图。


METAR-TAF: